Waynesburg, Pennsylvania
Current Conditions -  °F | °C
As of 6:15 PM on Tuesday 25 Nov 2014 (Local Time) from KAFJ Reporting Station
Clear Clear  
Wind Chill: 37°   Ceiling: Unl
Heat Index: 37°   Visibility: 10mi
Dew Point: 25°   Wind: 3mph
Humidity: 60%   Direction: 350°N
Pressure: 30.13"   Gusts: NA
Location:  39.9°N, 80.18°W
Report Text: KAFJ 252315Z 35003KT 10SM CLR 03/M04 A3013 RMK AO1
Loading
Personal Weather Stations






























Interactive Weather Map New forecast layout! Learn more

10-Day Weather Forecast

Advertisements
Track Severe Weather on mobile